createdAt,value
2018-05-03T00:02:44.152Z,60.10
2018-05-03T00:08:13.061Z,60.30
2018-05-03T00:13:41.213Z,60.30
2018-05-03T00:19:10.114Z,60.40
2018-05-03T00:24:38.279Z,60.40
2018-05-03T00:30:07.352Z,60.80
2018-05-03T00:35:35.487Z,60.80
2018-05-03T00:41:03.661Z,60.80
2018-05-03T00:46:31.809Z,60.90
2018-05-03T00:52:00.934Z,61.00
2018-05-03T00:57:29.140Z,61.10
2018-05-03T01:02:58.061Z,61.30
2018-05-03T01:08:26.201Z,61.30
2018-05-03T01:13:54.344Z,61.40
2018-05-03T01:19:22.470Z,61.30
2018-05-03T01:24:50.604Z,61.40
2018-05-03T01:30:18.748Z,61.50
2018-05-03T01:36:04.815Z,61.60
2018-05-03T01:41:33.747Z,61.80
2018-05-03T01:47:01.929Z,61.80
2018-05-03T01:52:32.055Z,61.70
2018-05-03T01:58:00.212Z,61.80
2018-05-03T02:03:28.351Z,61.80
2018-05-03T02:08:56.500Z,61.80
2018-05-03T02:14:25.434Z,61.90
2018-05-03T02:19:54.328Z,61.90
2018-05-03T02:25:22.476Z,61.90
2018-05-03T02:30:50.642Z,61.90
2018-05-03T02:36:18.791Z,61.90
2018-05-03T02:41:46.939Z,62.00
2018-05-03T02:47:15.875Z,62.10
2018-05-03T02:52:44.023Z,62.10
2018-05-03T02:58:30.125Z,62.30
2018-05-03T03:04:21.825Z,62.30
2018-05-03T03:16:50.576Z,62.10
2018-05-03T03:22:42.217Z,62.10
2018-05-03T03:34:38.036Z,61.80
2018-05-03T03:46:15.742Z,61.60
2018-05-03T03:51:43.903Z,61.70
2018-05-03T03:57:12.046Z,61.80
2018-05-03T04:02:40.217Z,61.50
2018-05-03T04:08:09.128Z,61.70
2018-05-03T04:13:37.285Z,61.50
2018-05-03T04:19:23.351Z,61.50
2018-05-03T04:25:09.458Z,61.50
2018-05-03T04:30:38.397Z,61.30
2018-05-03T04:36:07.361Z,61.20
2018-05-03T04:41:35.520Z,61.20
2018-05-03T04:47:03.689Z,61.30
2018-05-03T04:52:31.878Z,60.90
2018-05-03T04:58:00.045Z,60.80
2018-05-03T05:03:28.193Z,60.80
2018-05-03T05:08:56.769Z,60.80
2018-05-03T05:14:24.995Z,60.80
2018-05-03T05:19:53.057Z,60.70
2018-05-03T05:25:21.223Z,60.60
2018-05-03T05:30:49.482Z,60.60
2018-05-03T05:36:17.525Z,60.40
2018-05-03T05:41:45.668Z,60.30
2018-05-03T05:47:13.821Z,60.00
2018-05-03T05:52:42.006Z,59.90
2018-05-03T05:58:10.145Z,60.10
2018-05-03T06:03:39.065Z,59.70
2018-05-03T06:09:07.972Z,59.60
2018-05-03T06:14:36.128Z,59.60
2018-05-03T06:20:06.933Z,59.40
2018-05-03T06:25:35.090Z,59.30
2018-05-03T06:31:03.285Z,59.20
2018-05-03T06:36:31.504Z,59.10
2018-05-03T06:42:00.444Z,59.10
2018-05-03T06:47:28.638Z,59.10
2018-05-03T06:52:57.555Z,59.00
2018-05-03T06:58:25.685Z,59.00
2018-05-03T07:03:54.677Z,58.60
2018-05-03T07:09:22.739Z,58.60
2018-05-03T07:14:51.649Z,57.40
2018-05-03T07:20:19.798Z,57.40
2018-05-03T07:25:48.700Z,56.90
2018-05-03T07:31:16.915Z,56.90
2018-05-03T07:36:45.067Z,56.40
2018-05-03T07:42:13.207Z,56.50
2018-05-03T07:47:41.349Z,55.80
2018-05-03T07:53:09.485Z,55.40
2018-05-03T07:58:37.634Z,54.90
2018-05-03T08:04:05.779Z,55.30
2018-05-03T08:09:34.687Z,54.40
2018-05-03T08:15:02.864Z,54.40
2018-05-03T08:20:31.061Z,54.10
2018-05-03T08:25:59.968Z,52.40
2018-05-03T08:31:28.117Z,52.20
2018-05-03T08:36:57.032Z,52.70
2018-05-03T08:42:26.188Z,52.50
2018-05-03T08:47:55.082Z,51.80
2018-05-03T08:53:23.215Z,51.70
2018-05-03T08:58:51.373Z,51.80
2018-05-03T09:04:20.312Z,51.70
2018-05-03T09:09:48.465Z,51.70
2018-05-03T09:15:16.599Z,50.90
2018-05-03T09:20:44.754Z,50.90
2018-05-03T09:26:12.930Z,51.30
2018-05-03T09:31:41.037Z,50.70
2018-05-03T09:37:09.189Z,50.40
2018-05-03T09:42:37.338Z,50.50
2018-05-03T09:48:06.239Z,50.70
2018-05-03T09:53:34.389Z,50.70
2018-05-03T09:59:02.566Z,50.40
2018-05-03T10:04:30.773Z,50.60
2018-05-03T10:09:58.917Z,49.90
2018-05-03T10:15:27.066Z,49.70
2018-05-03T10:20:55.959Z,49.80
2018-05-03T10:26:24.095Z,49.30
2018-05-03T10:31:52.241Z,48.90
2018-05-03T10:37:20.385Z,49.20
2018-05-03T10:42:48.533Z,48.70
2018-05-03T10:48:16.667Z,48.70
2018-05-03T10:53:44.825Z,48.40
2018-05-03T10:59:13.724Z,48.40
2018-05-03T11:04:41.871Z,48.40
2018-05-03T11:10:10.023Z,47.80
2018-05-03T11:15:38.176Z,47.90
2018-05-03T11:21:06.344Z,48.10
2018-05-03T11:26:34.493Z,47.80
2018-05-03T11:32:02.635Z,48.30
2018-05-03T11:37:30.793Z,48.20
2018-05-03T11:42:59.745Z,48.10
2018-05-03T11:48:28.703Z,48.80
2018-05-03T11:53:56.861Z,48.80
2018-05-03T11:59:25.170Z,48.20
2018-05-03T12:04:53.916Z,48.30
2018-05-03T12:10:22.058Z,48.10
2018-05-03T12:15:50.210Z,47.80
2018-05-03T12:21:18.341Z,48.70
2018-05-03T12:26:46.469Z,48.30
2018-05-03T12:32:14.599Z,48.90
2018-05-03T12:37:42.773Z,49.00
2018-05-03T12:43:11.693Z,49.40
2018-05-03T12:48:39.828Z,49.40
2018-05-03T12:54:08.728Z,49.70
2018-05-03T12:59:36.880Z,49.70
2018-05-03T13:05:05.772Z,49.60
2018-05-03T13:10:33.941Z,49.50
2018-05-03T13:16:02.871Z,49.80
2018-05-03T13:21:31.094Z,49.80
2018-05-03T13:26:59.178Z,50.00
2018-05-03T13:32:29.288Z,50.20
2018-05-03T13:37:57.443Z,50.50
2018-05-03T13:43:25.576Z,50.70
2018-05-03T13:48:53.725Z,50.80
2018-05-03T13:54:21.877Z,50.50
2018-05-03T13:59:50.007Z,50.70
2018-05-03T14:05:18.154Z,50.60
2018-05-03T14:10:46.313Z,50.40
2018-05-03T14:16:15.220Z,50.50
2018-05-03T14:21:43.359Z,50.40
2018-05-03T14:27:12.287Z,51.30
2018-05-03T14:32:40.785Z,50.70
2018-05-03T14:38:08.939Z,50.80
2018-05-03T14:43:37.081Z,50.70
2018-05-03T14:49:06.004Z,52.10
2018-05-03T14:54:34.153Z,52.00
2018-05-03T15:00:02.323Z,52.50
2018-05-03T15:05:30.529Z,53.00
2018-05-03T15:10:58.722Z,53.50
2018-05-03T15:16:26.902Z,53.90
2018-05-03T15:21:55.046Z,54.00
2018-05-03T15:27:23.192Z,54.60
2018-05-03T15:32:51.319Z,55.30
2018-05-03T15:38:19.462Z,55.90
2018-05-03T15:43:47.617Z,56.60
2018-05-03T15:49:16.512Z,57.50
2018-05-03T15:54:44.657Z,57.50
2018-05-03T16:00:13.583Z,58.70
2018-05-03T16:05:41.712Z,58.50
2018-05-03T16:11:10.620Z,59.40
2018-05-03T16:16:38.782Z,59.40
2018-05-03T16:22:07.709Z,59.60
2018-05-03T16:27:35.867Z,59.70
2018-05-03T16:33:04.796Z,60.10
2018-05-03T16:38:32.936Z,60.00
2018-05-03T16:44:01.154Z,60.10
2018-05-03T16:49:29.321Z,60.20
2018-05-03T16:54:58.262Z,61.00
2018-05-03T17:00:27.217Z,61.20
2018-05-03T17:05:55.417Z,61.20
2018-05-03T17:11:27.016Z,61.80
2018-05-03T17:16:55.161Z,61.10
2018-05-03T17:22:23.367Z,61.30
2018-05-03T17:27:52.450Z,62.40
2018-05-03T17:33:21.351Z,61.80
2018-05-03T17:39:01.286Z,61.80
2018-05-03T17:44:33.760Z,61.90
2018-05-03T17:50:03.655Z,62.00
2018-05-03T17:55:32.016Z,61.90
2018-05-03T18:01:01.159Z,62.10
2018-05-03T18:06:29.464Z,62.20
2018-05-03T18:11:58.141Z,62.40
2018-05-03T18:17:31.305Z,62.50
2018-05-03T18:22:59.445Z,62.50
2018-05-03T18:28:33.004Z,62.70
2018-05-03T18:34:01.146Z,63.50
2018-05-03T18:39:29.302Z,63.00
2018-05-03T18:44:57.525Z,62.90
2018-05-03T18:50:25.670Z,63.00
2018-05-03T18:55:55.789Z,63.00
2018-05-03T19:01:24.685Z,63.60
2018-05-03T19:06:52.847Z,62.80
2018-05-03T19:12:20.979Z,62.90
2018-05-03T19:17:51.334Z,63.00
2018-05-03T19:23:19.555Z,63.00
2018-05-03T19:28:48.476Z,64.00
2018-05-03T19:34:16.880Z,63.20
2018-05-03T19:39:46.076Z,63.30
2018-05-03T19:45:15.081Z,63.10
2018-05-03T19:50:45.181Z,63.00
2018-05-03T19:56:14.109Z,63.20
2018-05-03T20:01:43.026Z,63.00
2018-05-03T20:07:11.163Z,63.00
2018-05-03T20:12:40.102Z,63.00
2018-05-03T20:18:08.279Z,63.00
2018-05-03T20:23:36.484Z,63.00
2018-05-03T20:29:04.805Z,63.30
2018-05-03T20:34:33.015Z,63.40
2018-05-03T20:40:01.245Z,63.60
2018-05-03T20:45:30.361Z,63.90
2018-05-03T20:50:59.451Z,64.10
2018-05-03T20:56:27.715Z,64.10
2018-05-03T21:01:56.615Z,64.60
2018-05-03T21:07:24.928Z,64.60
2018-05-03T21:12:53.098Z,64.80
2018-05-03T21:18:22.382Z,65.10
2018-05-03T21:23:51.482Z,65.20
2018-05-03T21:29:20.414Z,66.40
2018-05-03T21:34:48.550Z,66.30
2018-05-03T21:40:17.464Z,66.00
2018-05-03T21:45:45.620Z,65.90
2018-05-03T21:51:13.774Z,66.10
2018-05-03T21:56:41.941Z,66.10
2018-05-03T22:02:10.861Z,66.50
2018-05-03T22:07:45.482Z,66.40
2018-05-03T22:13:13.697Z,66.60
2018-05-03T22:18:41.854Z,66.90
2018-05-03T22:24:10.005Z,67.00
2018-05-03T22:29:38.148Z,67.30
2018-05-03T22:35:06.301Z,67.40
2018-05-03T22:40:40.424Z,67.40
2018-05-03T22:46:09.547Z,67.70
2018-05-03T22:51:37.730Z,67.90
2018-05-03T22:57:05.897Z,68.00
2018-05-03T23:02:34.816Z,68.20
2018-05-03T23:08:02.975Z,68.20
2018-05-03T23:13:31.131Z,68.20
2018-05-03T23:18:59.948Z,68.20
2018-05-03T23:24:28.096Z,68.20
2018-05-03T23:29:57.259Z,68.10
2018-05-03T23:35:26.221Z,68.20
2018-05-03T23:40:54.315Z,68.20
2018-05-03T23:46:23.234Z,68.30
2018-05-03T23:51:51.401Z,68.20
2018-05-03T23:57:19.532Z,68.30
